sensor_id;sensor_type;location;lat;lon;timestamp;pressure;altitude;pressure_sealevel;temperature;humidity
25947;BME280;13745;51.470;9.894;2023-07-13T00:00:08;99188.50;;;18.71;67.62
25947;BME280;13745;51.470;9.894;2023-07-13T00:02:59;99187.66;;;18.71;67.75
25947;BME280;13745;51.470;9.894;2023-07-13T00:05:44;99183.31;;;18.70;67.60
25947;BME280;13745;51.470;9.894;2023-07-13T00:08:31;99179.78;;;18.71;67.48
25947;BME280;13745;51.470;9.894;2023-07-13T00:11:18;99180.56;;;18.73;67.37
25947;BME280;13745;51.470;9.894;2023-07-13T00:14:04;99190.13;;;18.74;67.39
25947;BME280;13745;51.470;9.894;2023-07-13T00:16:49;99190.03;;;18.75;67.38
25947;BME280;13745;51.470;9.894;2023-07-13T00:19:34;99187.34;;;18.77;67.59
25947;BME280;13745;51.470;9.894;2023-07-13T00:22:19;99196.88;;;18.79;67.49
25947;BME280;13745;51.470;9.894;2023-07-13T00:25:05;99194.16;;;18.81;67.47
25947;BME280;13745;51.470;9.894;2023-07-13T00:27:52;99183.66;;;18.81;67.56
25947;BME280;13745;51.470;9.894;2023-07-13T00:30:37;99187.03;;;18.83;67.60
25947;BME280;13745;51.470;9.894;2023-07-13T00:33:22;99186.88;;;18.86;67.66
25947;BME280;13745;51.470;9.894;2023-07-13T00:36:08;99185.97;;;18.87;68.24
25947;BME280;13745;51.470;9.894;2023-07-13T00:38:54;99179.78;;;18.88;68.59
25947;BME280;13745;51.470;9.894;2023-07-13T00:41:39;99184.31;;;18.85;68.87
25947;BME280;13745;51.470;9.894;2023-07-13T00:44:26;99183.66;;;18.81;68.82
25947;BME280;13745;51.470;9.894;2023-07-13T00:47:11;99182.88;;;18.79;68.90
25947;BME280;13745;51.470;9.894;2023-07-13T00:49:57;99188.13;;;18.79;68.81
25947;BME280;13745;51.470;9.894;2023-07-13T00:52:46;99185.50;;;18.79;68.86
25947;BME280;13745;51.470;9.894;2023-07-13T00:55:32;99184.78;;;18.75;69.30
25947;BME280;13745;51.470;9.894;2023-07-13T00:58:18;99182.25;;;18.74;69.35
25947;BME280;13745;51.470;9.894;2023-07-13T01:01:04;99181.56;;;18.70;69.35
25947;BME280;13745;51.470;9.894;2023-07-13T01:03:50;99185.16;;;18.68;69.44
25947;BME280;13745;51.470;9.894;2023-07-13T01:06:36;99188.72;;;18.67;69.38
25947;BME280;13745;51.470;9.894;2023-07-13T01:09:22;99190.50;;;18.66;69.49
25947;BME280;13745;51.470;9.894;2023-07-13T01:12:08;99190.63;;;18.63;69.52
25947;BME280;13745;51.470;9.894;2023-07-13T01:14:57;99194.19;;;18.62;69.29
25947;BME280;13745;51.470;9.894;2023-07-13T01:17:44;99195.09;;;18.61;69.35
25947;BME280;13745;51.470;9.894;2023-07-13T01:20:29;99200.34;;;18.61;69.34
25947;BME280;13745;51.470;9.894;2023-07-13T01:23:16;99197.72;;;18.61;69.52
25947;BME280;13745;51.470;9.894;2023-07-13T01:26:01;99194.25;;;18.61;69.74
25947;BME280;13745;51.470;9.894;2023-07-13T01:28:47;99198.56;;;18.62;69.47
25947;BME280;13745;51.470;9.894;2023-07-13T01:31:32;99201.94;;;18.65;69.53
25947;BME280;13745;51.470;9.894;2023-07-13T01:34:17;99199.31;;;18.65;69.77
25947;BME280;13745;51.470;9.894;2023-07-13T01:37:02;99203.63;;;18.66;69.79
25947;BME280;13745;51.470;9.894;2023-07-13T01:39:49;99194.81;;;18.67;69.76
25947;BME280;13745;51.470;9.894;2023-07-13T01:42:34;99190.44;;;18.68;69.98
25947;BME280;13745;51.470;9.894;2023-07-13T01:45:20;99196.44;;;18.70;69.83
25947;BME280;13745;51.470;9.894;2023-07-13T01:48:05;99193.75;;;18.71;69.87
25947;BME280;13745;51.470;9.894;2023-07-13T01:50:51;99200.63;;;18.74;69.95
25947;BME280;13745;51.470;9.894;2023-07-13T01:53:36;99203.19;;;18.75;70.02
25947;BME280;13745;51.470;9.894;2023-07-13T01:56:23;99195.31;;;18.75;69.92
25947;BME280;13745;51.470;9.894;2023-07-13T01:59:08;99197.25;;;18.72;69.95
25947;BME280;13745;51.470;9.894;2023-07-13T02:01:53;99198.22;;;18.69;70.02
25947;BME280;13745;51.470;9.894;2023-07-13T02:04:38;99200.09;;;18.67;70.13
25947;BME280;13745;51.470;9.894;2023-07-13T02:07:23;99194.91;;;18.66;69.97
25947;BME280;13745;51.470;9.894;2023-07-13T02:10:10;99190.63;;;18.63;70.04
25947;BME280;13745;51.470;9.894;2023-07-13T02:12:56;99187.16;;;18.63;70.40
25947;BME280;13745;51.470;9.894;2023-07-13T02:15:42;99183.69;;;18.62;70.39
25947;BME280;13745;51.470;9.894;2023-07-13T02:18:27;99175.09;;;18.59;70.30
25947;BME280;13745;51.470;9.894;2023-07-13T02:21:12;99173.31;;;18.59;70.84
25947;BME280;13745;51.470;9.894;2023-07-13T02:23:58;99171.63;;;18.58;71.52
25947;BME280;13745;51.470;9.894;2023-07-13T02:26:43;99165.69;;;18.55;72.19
25947;BME280;13745;51.470;9.894;2023-07-13T02:29:30;99160.66;;;18.50;72.65
25947;BME280;13745;51.470;9.894;2023-07-13T02:32:15;99154.72;;;18.46;72.81
25947;BME280;13745;51.470;9.894;2023-07-13T02:35:02;99161.09;;;18.41;72.92
25947;BME280;13745;51.470;9.894;2023-07-13T02:37:47;99158.94;;;18.32;72.86
25947;BME280;13745;51.470;9.894;2023-07-13T02:40:32;99159.38;;;18.22;72.96
25947;BME280;13745;51.470;9.894;2023-07-13T02:43:19;99160.66;;;18.14;72.82
25947;BME280;13745;51.470;9.894;2023-07-13T02:46:07;99161.03;;;18.06;73.02
25947;BME280;13745;51.470;9.894;2023-07-13T02:48:52;99157.69;;;18.03;72.80
25947;BME280;13745;51.470;9.894;2023-07-13T02:51:38;99156.06;;;18.00;72.57
25947;BME280;13745;51.470;9.894;2023-07-13T02:54:23;99158.00;;;17.96;72.61
25947;BME280;13745;51.470;9.894;2023-07-13T02:57:08;99168.69;;;17.92;72.37
25947;BME280;13745;51.470;9.894;2023-07-13T02:59:53;99173.25;;;17.88;72.66
25947;BME280;13745;51.470;9.894;2023-07-13T03:02:40;99172.75;;;17.80;72.93
25947;BME280;13745;51.470;9.894;2023-07-13T03:05:25;99171.09;;;17.78;72.86
25947;BME280;13745;51.470;9.894;2023-07-13T03:08:11;99162.69;;;17.71;73.27
25947;BME280;13745;51.470;9.894;2023-07-13T03:10:59;99161.06;;;17.67;73.44
25947;BME280;13745;51.470;9.894;2023-07-13T03:13:46;99164.91;;;17.60;73.67
25947;BME280;13745;51.470;9.894;2023-07-13T03:16:32;99166.94;;;17.53;73.98
25947;BME280;13745;51.470;9.894;2023-07-13T03:19:18;99167.16;;;17.49;73.90
25947;BME280;13745;51.470;9.894;2023-07-13T03:22:07;99171.63;;;17.47;73.93
25947;BME280;13745;51.470;9.894;2023-07-13T03:24:54;99165.59;;;17.45;73.87
25947;BME280;13745;51.470;9.894;2023-07-13T03:27:40;99174.44;;;17.42;73.97
25947;BME280;13745;51.470;9.894;2023-07-13T03:30:26;99183.31;;;17.39;74.03
25947;BME280;13745;51.470;9.894;2023-07-13T03:33:12;99179.03;;;17.37;73.90
25947;BME280;13745;51.470;9.894;2023-07-13T03:35:59;99182.78;;;17.31;74.27
25947;BME280;13745;51.470;9.894;2023-07-13T03:38:45;99192.47;;;17.29;74.26
25947;BME280;13745;51.470;9.894;2023-07-13T03:41:33;99193.38;;;17.28;74.35
25947;BME280;13745;51.470;9.894;2023-07-13T03:44:19;99196.16;;;17.25;74.49
25947;BME280;13745;51.470;9.894;2023-07-13T03:47:08;99201.66;;;17.19;74.86
25947;BME280;13745;51.470;9.894;2023-07-13T03:49:53;99201.78;;;17.16;74.80
25947;BME280;13745;51.470;9.894;2023-07-13T03:52:40;99207.72;;;17.20;75.11
25947;BME280;13745;51.470;9.894;2023-07-13T03:55:25;99216.59;;;17.17;75.04
25947;BME280;13745;51.470;9.894;2023-07-13T03:58:26;99229.69;;;17.17;75.27
25947;BME280;13745;51.470;9.894;2023-07-13T04:01:18;99222.91;;;17.11;75.25
25947;BME280;13745;51.470;9.894;2023-07-13T04:04:04;99233.53;;;17.08;75.17
25947;BME280;13745;51.470;9.894;2023-07-13T04:06:49;99230.16;;;17.06;75.58
25947;BME280;13745;51.470;9.894;2023-07-13T04:09:38;99227.63;;;17.03;75.69
25947;BME280;13745;51.470;9.894;2023-07-13T04:12:23;99231.09;;;17.04;75.52
25947;BME280;13745;51.470;9.894;2023-07-13T04:15:08;99235.56;;;17.02;75.87
25947;BME280;13745;51.470;9.894;2023-07-13T04:17:54;99236.34;;;17.04;75.74
25947;BME280;13745;51.470;9.894;2023-07-13T04:20:39;99231.06;;;17.05;75.92
25947;BME280;13745;51.470;9.894;2023-07-13T04:23:24;99236.22;;;17.07;75.73
25947;BME280;13745;51.470;9.894;2023-07-13T04:26:10;99230.94;;;17.08;75.90
25947;BME280;13745;51.470;9.894;2023-07-13T04:28:56;99239.56;;;17.10;75.68
25947;BME280;13745;51.470;9.894;2023-07-13T04:31:42;99242.09;;;17.12;75.57
25947;BME280;13745;51.470;9.894;2023-07-13T04:34:27;99247.25;;;17.15;75.66
25947;BME280;13745;51.470;9.894;2023-07-13T04:37:12;99251.56;;;17.16;75.75
25947;BME280;13745;51.470;9.894;2023-07-13T04:39:57;99258.50;;;17.17;75.88
25947;BME280;13745;51.470;9.894;2023-07-13T04:42:43;99266.34;;;17.17;75.90
25947;BME280;13745;51.470;9.894;2023-07-13T04:45:28;99261.97;;;17.18;76.00
25947;BME280;13745;51.470;9.894;2023-07-13T04:48:14;99263.59;;;17.20;76.23
25947;BME280;13745;51.470;9.894;2023-07-13T04:51:00;99263.56;;;17.22;76.29
25947;BME280;13745;51.470;9.894;2023-07-13T04:53:46;99263.34;;;17.26;76.23
25947;BME280;13745;51.470;9.894;2023-07-13T04:56:31;99270.22;;;17.29;76.17
25947;BME280;13745;51.470;9.894;2023-07-13T04:59:17;99271.03;;;17.31;76.10
25947;BME280;13745;51.470;9.894;2023-07-13T05:02:03;99266.41;;;17.36;76.07
25947;BME280;13745;51.470;9.894;2023-07-13T05:04:48;99271.53;;;17.39;76.00
25947;BME280;13745;51.470;9.894;2023-07-13T05:07:33;99277.34;;;17.46;75.68
25947;BME280;13745;51.470;9.894;2023-07-13T05:10:19;99269.31;;;17.50;76.01
25947;BME280;13745;51.470;9.894;2023-07-13T05:13:04;99272.63;;;17.54;75.89
25947;BME280;13745;51.470;9.894;2023-07-13T05:15:57;99276.75;;;17.59;75.79
25947;BME280;13745;51.470;9.894;2023-07-13T05:18:42;99270.41;;;17.65;75.47
25947;BME280;13745;51.470;9.894;2023-07-13T05:21:27;99277.28;;;17.67;75.38
25947;BME280;13745;51.470;9.894;2023-07-13T05:24:12;99278.69;;;17.76;75.21
25947;BME280;13745;51.470;9.894;2023-07-13T05:26:57;99278.34;;;17.84;75.41
25947;BME280;13745;51.470;9.894;2023-07-13T05:29:43;99277.00;;;17.94;75.44
25947;BME280;13745;51.470;9.894;2023-07-13T05:32:30;99279.09;;;18.06;75.40
25947;BME280;13745;51.470;9.894;2023-07-13T05:35:15;99278.66;;;18.15;75.22
25947;BME280;13745;51.470;9.894;2023-07-13T05:38:00;99273.84;;;18.25;74.94
25947;BME280;13745;51.470;9.894;2023-07-13T05:40:45;99271.53;;;18.36;74.66
25947;BME280;13745;51.470;9.894;2023-07-13T05:43:31;99274.47;;;18.49;74.27
25947;BME280;13745;51.470;9.894;2023-07-13T05:46:17;99265.97;;;18.61;74.20
25947;BME280;13745;51.470;9.894;2023-07-13T05:49:03;99275.09;;;18.73;73.83
25947;BME280;13745;51.470;9.894;2023-07-13T05:51:48;99268.53;;;18.82;73.24
25947;BME280;13745;51.470;9.894;2023-07-13T05:54:34;99269.72;;;18.93;72.61
25947;BME280;13745;51.470;9.894;2023-07-13T05:57:19;99279.63;;;19.05;72.07
25947;BME280;13745;51.470;9.894;2023-07-13T06:00:04;99277.56;;;19.12;71.71
25947;BME280;13745;51.470;9.894;2023-07-13T06:02:56;99278.88;;;19.21;70.86
25947;BME280;13745;51.470;9.894;2023-07-13T06:05:43;99289.03;;;19.27;70.45
25947;BME280;13745;51.470;9.894;2023-07-13T06:08:28;99290.31;;;19.37;70.09
25947;BME280;13745;51.470;9.894;2023-07-13T06:11:15;99286.34;;;19.46;69.80
25947;BME280;13745;51.470;9.894;2023-07-13T06:14:01;99286.69;;;19.57;69.45
25947;BME280;13745;51.470;9.894;2023-07-13T06:16:47;99294.94;;;19.67;69.20
25947;BME280;13745;51.470;9.894;2023-07-13T06:19:32;99296.22;;;19.75;68.77
25947;BME280;13745;51.470;9.894;2023-07-13T06:22:19;99288.66;;;19.86;68.26
25947;BME280;13745;51.470;9.894;2023-07-13T06:25:05;99303.00;;;19.97;68.15
25947;BME280;13745;51.470;9.894;2023-07-13T06:27:51;99293.00;;;20.03;67.69
25947;BME280;13745;51.470;9.894;2023-07-13T06:30:38;99297.78;;;20.12;66.79
25947;BME280;13745;51.470;9.894;2023-07-13T06:33:23;99302.63;;;20.20;66.62
25947;BME280;13745;51.470;9.894;2023-07-13T06:36:08;99301.34;;;20.27;66.65
25947;BME280;13745;51.470;9.894;2023-07-13T06:38:55;99296.59;;;20.34;66.31
25947;BME280;13745;51.470;9.894;2023-07-13T06:41:40;99292.19;;;20.34;65.77
25947;BME280;13745;51.470;9.894;2023-07-13T06:44:29;99305.28;;;20.36;65.51
25947;BME280;13745;51.470;9.894;2023-07-13T06:47:14;99294.66;;;20.37;65.97
25947;BME280;13745;51.470;9.894;2023-07-13T06:49:58;99296.97;;;20.43;65.36
25947;BME280;13745;51.470;9.894;2023-07-13T06:52:44;99293.16;;;20.49;65.55
25947;BME280;13745;51.470;9.894;2023-07-13T06:55:30;99292.06;;;20.53;65.45
25947;BME280;13745;51.470;9.894;2023-07-13T06:58:16;99302.25;;;20.59;64.91
25947;BME280;13745;51.470;9.894;2023-07-13T07:01:02;99304.63;;;20.64;64.72
25947;BME280;13745;51.470;9.894;2023-07-13T07:03:47;99293.81;;;20.68;64.92
25947;BME280;13745;51.470;9.894;2023-07-13T07:06:32;99298.66;;;20.76;64.25
25947;BME280;13745;51.470;9.894;2023-07-13T07:09:17;99294.66;;;20.85;64.20
25947;BME280;13745;51.470;9.894;2023-07-13T07:12:04;99304.75;;;20.92;64.01
25947;BME280;13745;51.470;9.894;2023-07-13T07:14:49;99299.16;;;20.98;63.66
25947;BME280;13745;51.470;9.894;2023-07-13T07:17:34;99301.44;;;21.04;63.91
25947;BME280;13745;51.470;9.894;2023-07-13T07:20:20;99299.66;;;21.05;63.78
25947;BME280;13745;51.470;9.894;2023-07-13T07:23:05;99295.81;;;21.11;63.52
25947;BME280;13745;51.470;9.894;2023-07-13T07:25:51;99295.63;;;21.14;63.07
25947;BME280;13745;51.470;9.894;2023-07-13T07:28:37;99300.63;;;21.18;62.99
25947;BME280;13745;51.470;9.894;2023-07-13T07:31:23;99299.31;;;21.27;62.88
25947;BME280;13745;51.470;9.894;2023-07-13T07:34:08;99295.63;;;21.29;62.68
25947;BME280;13745;51.470;9.894;2023-07-13T07:36:54;99296.03;;;21.38;62.29
25947;BME280;13745;51.470;9.894;2023-07-13T07:39:40;99302.25;;;21.51;62.48
25947;BME280;13745;51.470;9.894;2023-07-13T07:42:25;99302.59;;;21.61;62.42
25947;BME280;13745;51.470;9.894;2023-07-13T07:45:11;99296.91;;;21.67;62.20
25947;BME280;13745;51.470;9.894;2023-07-13T07:47:57;99300.97;;;21.72;61.99
25947;BME280;13745;51.470;9.894;2023-07-13T07:50:43;99306.84;;;21.77;61.31
25947;BME280;13745;51.470;9.894;2023-07-13T07:53:28;99304.84;;;21.81;61.41
25947;BME280;13745;51.470;9.894;2023-07-13T07:56:13;99302.69;;;21.87;60.45
25947;BME280;13745;51.470;9.894;2023-07-13T07:58:59;99312.09;;;21.92;59.87
25947;BME280;13745;51.470;9.894;2023-07-13T08:01:46;99299.69;;;21.94;60.07
25947;BME280;13745;51.470;9.894;2023-07-13T08:04:34;99301.56;;;22.06;60.14
25947;BME280;13745;51.470;9.894;2023-07-13T08:07:19;99315.06;;;22.15;59.38
25947;BME280;13745;51.470;9.894;2023-07-13T08:10:04;99308.38;;;22.24;59.63
25947;BME280;13745;51.470;9.894;2023-07-13T08:12:50;99306.56;;;22.39;58.94
25947;BME280;13745;51.470;9.894;2023-07-13T08:15:34;99309.19;;;22.53;58.64
25947;BME280;13745;51.470;9.894;2023-07-13T08:18:22;99312.09;;;22.63;58.41
25947;BME280;13745;51.470;9.894;2023-07-13T08:21:08;99326.00;;;22.79;58.46
25947;BME280;13745;51.470;9.894;2023-07-13T08:23:53;99318.56;;;22.86;58.22
25947;BME280;13745;51.470;9.894;2023-07-13T08:26:38;99321.28;;;22.84;58.70
25947;BME280;13745;51.470;9.894;2023-07-13T08:29:23;99321.22;;;22.71;58.61
25947;BME280;13745;51.470;9.894;2023-07-13T08:32:08;99320.28;;;22.73;58.20
25947;BME280;13745;51.470;9.894;2023-07-13T08:34:56;99316.78;;;22.72;58.55
25947;BME280;13745;51.470;9.894;2023-07-13T08:37:41;99322.38;;;22.67;58.39
25947;BME280;13745;51.470;9.894;2023-07-13T08:40:27;99323.13;;;22.69;58.32
25947;BME280;13745;51.470;9.894;2023-07-13T08:43:16;99328.31;;;22.85;58.24
25947;BME280;13745;51.470;9.894;2023-07-13T08:46:05;99321.59;;;23.07;58.01
25947;BME280;13745;51.470;9.894;2023-07-13T08:48:56;99317.53;;;23.28;57.11
25947;BME280;13745;51.470;9.894;2023-07-13T08:51:45;99318.59;;;23.25;57.33
25947;BME280;13745;51.470;9.894;2023-07-13T08:54:35;99310.56;;;23.40;56.91
25947;BME280;13745;51.470;9.894;2023-07-13T08:57:27;99315.69;;;23.43;57.30
25947;BME280;13745;51.470;9.894;2023-07-13T09:00:15;99322.97;;;23.39;57.17
25947;BME280;13745;51.470;9.894;2023-07-13T09:03:01;99318.06;;;23.33;57.55
25947;BME280;13745;51.470;9.894;2023-07-13T09:05:51;99317.72;;;23.25;57.48
25947;BME280;13745;51.470;9.894;2023-07-13T09:08:46;99318.69;;;23.24;57.23
25947;BME280;13745;51.470;9.894;2023-07-13T09:11:42;99317.72;;;23.25;57.16
25947;BME280;13745;51.470;9.894;2023-07-13T09:14:37;99323.28;;;23.35;57.53
25947;BME280;13745;51.470;9.894;2023-07-13T09:17:27;99320.72;;;23.60;56.71
25947;BME280;13745;51.470;9.894;2023-07-13T09:20:18;99314.44;;;23.74;56.39
25947;BME280;13745;51.470;9.894;2023-07-13T09:23:11;99315.00;;;23.92;56.17
25947;BME280;13745;51.470;9.894;2023-07-13T09:26:05;99316.16;;;24.13;55.71
25947;BME280;13745;51.470;9.894;2023-07-13T09:28:57;99314.22;;;24.28;55.99
25947;BME280;13745;51.470;9.894;2023-07-13T09:31:47;99310.97;;;24.12;55.84
25947;BME280;13745;51.470;9.894;2023-07-13T09:34:34;99320.16;;;24.06;56.03
25947;BME280;13745;51.470;9.894;2023-07-13T09:37:21;99317.03;;;24.01;56.33
25947;BME280;13745;51.470;9.894;2023-07-13T09:40:23;99321.22;;;23.91;56.11
25947;BME280;13745;51.470;9.894;2023-07-13T09:43:13;99319.63;;;24.14;55.82
25947;BME280;13745;51.470;9.894;2023-07-13T09:45:58;99321.44;;;24.38;55.07
25947;BME280;13745;51.470;9.894;2023-07-13T09:48:43;99307.38;;;24.62;54.84
25947;BME280;13745;51.470;9.894;2023-07-13T09:51:28;99319.59;;;24.88;54.35
25947;BME280;13745;51.470;9.894;2023-07-13T09:54:18;99312.75;;;24.97;54.22
25947;BME280;13745;51.470;9.894;2023-07-13T09:57:12;99316.03;;;24.77;53.71
25947;BME280;13745;51.470;9.894;2023-07-13T09:59:59;99310.44;;;24.69;53.90
25947;BME280;13745;51.470;9.894;2023-07-13T10:02:44;99324.13;;;24.62;54.34
25947;BME280;13745;51.470;9.894;2023-07-13T10:05:37;99320.47;;;24.52;53.59
25947;BME280;13745;51.470;9.894;2023-07-13T10:08:27;99325.03;;;24.37;54.34
25947;BME280;13745;51.470;9.894;2023-07-13T10:11:26;99326.50;;;24.16;54.77
25947;BME280;13745;51.470;9.894;2023-07-13T10:14:16;99334.72;;;24.00;55.26
25947;BME280;13745;51.470;9.894;2023-07-13T10:17:04;99328.25;;;23.92;55.05
25947;BME280;13745;51.470;9.894;2023-07-13T10:19:50;99331.53;;;24.08;54.59
25947;BME280;13745;51.470;9.894;2023-07-13T10:22:38;99328.84;;;24.21;54.33
25947;BME280;13745;51.470;9.894;2023-07-13T10:25:31;99325.88;;;24.38;53.76
25947;BME280;13745;51.470;9.894;2023-07-13T10:28:25;99319.63;;;24.39;53.79
25947;BME280;13745;51.470;9.894;2023-07-13T10:31:14;99320.97;;;24.57;53.08
25947;BME280;13745;51.470;9.894;2023-07-13T10:34:01;99321.00;;;24.81;53.23
25947;BME280;13745;51.470;9.894;2023-07-13T10:36:47;99321.38;;;24.88;52.80
25947;BME280;13745;51.470;9.894;2023-07-13T10:39:34;99325.97;;;24.86;52.62
25947;BME280;13745;51.470;9.894;2023-07-13T10:42:25;99322.50;;;24.73;52.84
25947;BME280;13745;51.470;9.894;2023-07-13T10:45:14;99317.44;;;24.70;52.78
25947;BME280;13745;51.470;9.894;2023-07-13T10:48:00;99324.41;;;24.83;52.46
25947;BME280;13745;51.470;9.894;2023-07-13T10:50:50;99323.47;;;25.08;52.60
25947;BME280;13745;51.470;9.894;2023-07-13T10:53:38;99324.28;;;25.33;52.24
25947;BME280;13745;51.470;9.894;2023-07-13T10:56:29;99317.31;;;25.43;52.49
25947;BME280;13745;51.470;9.894;2023-07-13T10:59:16;99319.00;;;25.33;52.33
25947;BME280;13745;51.470;9.894;2023-07-13T11:02:10;99326.00;;;25.10;52.27
25947;BME280;13745;51.470;9.894;2023-07-13T11:04:57;99332.72;;;24.90;52.22
25947;BME280;13745;51.470;9.894;2023-07-13T11:07:55;99337.06;;;24.67;51.91
25947;BME280;13745;51.470;9.894;2023-07-13T11:10:50;99337.09;;;24.54;52.56
25947;BME280;13745;51.470;9.894;2023-07-13T11:16:43;99335.75;;;24.36;53.00
25947;BME280;13745;51.470;9.894;2023-07-13T11:19:50;99340.38;;;24.58;52.40
25947;BME280;13745;51.470;9.894;2023-07-13T11:22:44;99329.91;;;24.80;52.20
25947;BME280;13745;51.470;9.894;2023-07-13T11:25:34;99324.00;;;24.77;51.78
25947;BME280;13745;51.470;9.894;2023-07-13T11:28:23;99326.56;;;24.65;52.01
25947;BME280;13745;51.470;9.894;2023-07-13T11:31:14;99321.03;;;24.69;52.13
25947;BME280;13745;51.470;9.894;2023-07-13T11:34:00;99320.31;;;24.67;52.19
25947;BME280;13745;51.470;9.894;2023-07-13T11:36:47;99329.28;;;24.77;52.05
25947;BME280;13745;51.470;9.894;2023-07-13T11:39:35;99320.38;;;25.02;51.49
25947;BME280;13745;51.470;9.894;2023-07-13T11:42:23;99317.75;;;25.26;51.61
25947;BME280;13745;51.470;9.894;2023-07-13T11:45:20;99314.88;;;25.40;51.26
25947;BME280;13745;51.470;9.894;2023-07-13T11:48:18;99301.59;;;25.40;50.48
25947;BME280;13745;51.470;9.894;2023-07-13T11:51:06;99312.34;;;25.38;51.00
25947;BME280;13745;51.470;9.894;2023-07-13T11:54:03;99312.59;;;25.35;50.92
25947;BME280;13745;51.470;9.894;2023-07-13T11:56:49;99314.63;;;25.32;51.52
25947;BME280;13745;51.470;9.894;2023-07-13T11:59:38;99310.63;;;25.26;52.07
25947;BME280;13745;51.470;9.894;2023-07-13T12:02:28;99321.19;;;25.15;52.55
25947;BME280;13745;51.470;9.894;2023-07-13T12:05:15;99319.00;;;25.33;52.01
25947;BME280;13745;51.470;9.894;2023-07-13T12:08:09;99313.13;;;25.63;51.31
25947;BME280;13745;51.470;9.894;2023-07-13T12:11:00;99304.03;;;25.89;51.14
25947;BME280;13745;51.470;9.894;2023-07-13T12:13:49;99305.28;;;26.08;50.91
25947;BME280;13745;51.470;9.894;2023-07-13T12:16:36;99320.63;;;26.15;50.32
25947;BME280;13745;51.470;9.894;2023-07-13T12:19:24;99314.31;;;25.94;50.45
25947;BME280;13745;51.470;9.894;2023-07-13T12:22:12;99320.53;;;25.70;50.96
25947;BME280;13745;51.470;9.894;2023-07-13T12:24:57;99323.88;;;25.61;51.33
25947;BME280;13745;51.470;9.894;2023-07-13T12:27:46;99317.13;;;25.57;50.78
25947;BME280;13745;51.470;9.894;2023-07-13T12:30:32;99316.47;;;25.77;51.07
25947;BME280;13745;51.470;9.894;2023-07-13T12:33:26;99322.03;;;25.86;51.07
25947;BME280;13745;51.470;9.894;2023-07-13T12:36:12;99325.06;;;25.92;50.56
25947;BME280;13745;51.470;9.894;2023-07-13T12:39:04;99327.25;;;25.98;50.66
25947;BME280;13745;51.470;9.894;2023-07-13T12:41:53;99318.91;;;26.03;50.63
25947;BME280;13745;51.470;9.894;2023-07-13T12:44:40;99322.41;;;26.03;50.29
25947;BME280;13745;51.470;9.894;2023-07-13T12:47:27;99312.66;;;26.15;50.05
25947;BME280;13745;51.470;9.894;2023-07-13T12:50:17;99319.88;;;26.13;50.21
25947;BME280;13745;51.470;9.894;2023-07-13T12:53:05;99326.38;;;25.98;50.43
25947;BME280;13745;51.470;9.894;2023-07-13T12:55:53;99333.97;;;25.80;50.41
25947;BME280;13745;51.470;9.894;2023-07-13T12:58:42;99337.75;;;25.65;50.34
25947;BME280;13745;51.470;9.894;2023-07-13T13:01:32;99334.00;;;25.56;50.88
25947;BME280;13745;51.470;9.894;2023-07-13T13:04:18;99337.75;;;25.54;50.99
25947;BME280;13745;51.470;9.894;2023-07-13T13:07:08;99339.66;;;25.52;50.39
25947;BME280;13745;51.470;9.894;2023-07-13T13:09:54;99343.94;;;25.65;50.73
25947;BME280;13745;51.470;9.894;2023-07-13T13:12:39;99337.66;;;25.66;50.68
25947;BME280;13745;51.470;9.894;2023-07-13T13:15:26;99333.84;;;25.46;50.26
25947;BME280;13745;51.470;9.894;2023-07-13T13:18:16;99340.56;;;25.28;50.46
25947;BME280;13745;51.470;9.894;2023-07-13T13:21:01;99347.97;;;25.12;50.53
25947;BME280;13745;51.470;9.894;2023-07-13T13:23:48;99342.91;;;24.96;51.00
25947;BME280;13745;51.470;9.894;2023-07-13T13:26:35;99357.78;;;24.86;51.39
25947;BME280;13745;51.470;9.894;2023-07-13T13:29:23;99360.56;;;24.84;51.59
25947;BME280;13745;51.470;9.894;2023-07-13T13:32:10;99361.28;;;24.86;51.77
25947;BME280;13745;51.470;9.894;2023-07-13T13:34:56;99351.34;;;25.14;51.64
25947;BME280;13745;51.470;9.894;2023-07-13T13:37:42;99345.16;;;25.37;51.47
25947;BME280;13745;51.470;9.894;2023-07-13T13:40:28;99355.34;;;25.43;50.83
25947;BME280;13745;51.470;9.894;2023-07-13T13:43:15;99343.34;;;25.38;50.86
25947;BME280;13745;51.470;9.894;2023-07-13T13:46:01;99351.16;;;25.28;50.59
25947;BME280;13745;51.470;9.894;2023-07-13T13:48:47;99354.75;;;25.16;50.24
25947;BME280;13745;51.470;9.894;2023-07-13T13:51:32;99356.34;;;25.06;50.31
25947;BME280;13745;51.470;9.894;2023-07-13T13:54:19;99355.72;;;25.02;50.55
25947;BME280;13745;51.470;9.894;2023-07-13T13:57:08;99366.66;;;25.10;51.10
25947;BME280;13745;51.470;9.894;2023-07-13T13:59:54;99366.97;;;25.30;50.94
25947;BME280;13745;51.470;9.894;2023-07-13T14:02:40;99353.66;;;25.42;51.08
25947;BME280;13745;51.470;9.894;2023-07-13T14:05:26;99366.56;;;25.47;50.87
25947;BME280;13745;51.470;9.894;2023-07-13T14:08:12;99351.44;;;25.36;50.60
25947;BME280;13745;51.470;9.894;2023-07-13T14:10:58;99370.53;;;25.17;51.00
25947;BME280;13745;51.470;9.894;2023-07-13T14:13:48;99359.34;;;25.01;50.89
25947;BME280;13745;51.470;9.894;2023-07-13T14:16:34;99372.72;;;25.00;50.88
25947;BME280;13745;51.470;9.894;2023-07-13T14:19:19;99364.63;;;25.01;51.10
25947;BME280;13745;51.470;9.894;2023-07-13T14:22:04;99378.53;;;25.05;50.54
25947;BME280;13745;51.470;9.894;2023-07-13T14:24:51;99370.06;;;25.00;49.98
25947;BME280;13745;51.470;9.894;2023-07-13T14:27:36;99370.78;;;25.02;49.93
25947;BME280;13745;51.470;9.894;2023-07-13T14:30:22;99375.16;;;25.03;50.09
25947;BME280;13745;51.470;9.894;2023-07-13T14:33:08;99380.22;;;25.06;50.42
25947;BME280;13745;51.470;9.894;2023-07-13T14:35:54;99373.34;;;25.03;50.33
25947;BME280;13745;51.470;9.894;2023-07-13T14:38:40;99383.97;;;25.03;50.86
25947;BME280;13745;51.470;9.894;2023-07-13T14:41:26;99378.75;;;25.02;51.34
25947;BME280;13745;51.470;9.894;2023-07-13T14:44:12;99372.81;;;24.98;51.10
25947;BME280;13745;51.470;9.894;2023-07-13T14:47:02;99379.53;;;24.91;51.10